Time;durP1;ratioP1;P1;durP2;ratioP2;P2;SDS_P1;SDS_P2;PMS_P1;PMS_P2;Temp;Humidity;BMP_temperature;BMP_pressure;BME280_temperature;BME280_humidity;BME280_pressure;Samples;Min_cycle;Max_cycle;Signal;HPM_P1;HPM_P2
2022/01/19 00:00:38;;;;;;;7.28;3.28;;;21.90;34.30;;;;;;5072893;28;20388;-67
2022/01/19 00:03:04;;;;;;;6.75;3.35;;;21.90;34.60;;;;;;5055855;28;20419;-66
2022/01/19 00:05:29;;;;;;;8.10;3.42;;;22.00;34.50;;;;;;5073996;28;20467;-71
2022/01/19 00:07:55;;;;;;;7.80;3.50;;;22.00;34.20;;;;;;5074078;28;20479;-65
2022/01/19 00:10:27;;;;;;;8.93;3.40;;;22.00;34.10;;;;;;5073993;28;20384;-66
2022/01/19 00:12:57;;;;;;;6.07;3.35;;;22.00;33.90;;;;;;5073531;28;20411;-67
2022/01/19 00:15:24;;;;;;;8.23;3.40;;;22.00;33.90;;;;;;5073857;28;20888;-66
2022/01/19 00:17:54;;;;;;;6.97;3.50;;;22.00;33.60;;;;;;5073630;28;20460;-67
2022/01/19 00:20:21;;;;;;;6.30;3.17;;;22.00;33.70;;;;;;5073863;28;20379;-67
2022/01/19 00:22:47;;;;;;;5.95;3.08;;;22.00;33.50;;;;;;5073800;28;20473;-72
2022/01/19 00:25:12;;;;;;;4.45;2.75;;;21.90;33.30;;;;;;5073376;28;20433;-67
2022/01/19 00:27:38;;;;;;;5.88;2.90;;;21.90;33.40;;;;;;5073609;28;20785;-67
2022/01/19 00:30:05;;;;;;;4.97;3.00;;;22.00;33.40;;;;;;5073679;28;20891;-67
2022/01/19 00:32:30;;;;;;;5.57;3.00;;;22.00;33.30;;;;;;5073570;28;20376;-67
2022/01/19 00:34:57;;;;;;;5.27;3.10;;;21.90;33.20;;;;;;5073555;28;20873;-67
2022/01/19 00:37:23;;;;;;;6.10;2.95;;;21.90;33.20;;;;;;5073467;28;20423;-67
2022/01/19 00:39:49;;;;;;;5.00;2.80;;;21.90;33.20;;;;;;5073440;28;20496;-67
2022/01/19 00:42:15;;;;;;;4.47;2.88;;;21.90;33.20;;;;;;5073437;28;20391;-67
2022/01/19 00:44:40;;;;;;;5.63;3.10;;;21.90;33.20;;;;;;5073309;28;20421;-71
2022/01/19 00:47:06;;;;;;;4.53;2.70;;;21.90;33.10;;;;;;5072947;28;20931;-67
2022/01/19 00:49:32;;;;;;;5.25;3.00;;;21.90;33.10;;;;;;5073281;28;20400;-67
2022/01/19 00:51:58;;;;;;;5.28;3.00;;;21.90;33.00;;;;;;5073239;28;20427;-67
2022/01/19 00:54:23;;;;;;;4.73;2.90;;;21.90;32.90;;;;;;5073299;28;20397;-68
2022/01/19 00:56:49;;;;;;;5.47;2.90;;;21.90;32.90;;;;;;5071894;28;20714;-68
2022/01/19 00:59:15;;;;;;;4.55;2.72;;;21.90;32.90;;;;;;5054318;28;20395;-68
2022/01/19 01:01:40;;;;;;;5.03;3.00;;;21.90;32.90;;;;;;5073101;28;20380;-67
2022/01/19 01:04:06;;;;;;;3.75;2.58;;;21.80;32.80;;;;;;5072975;28;20430;-67
2022/01/19 01:06:32;;;;;;;4.00;2.57;;;21.80;32.80;;;;;;5072896;28;20407;-68
2022/01/19 01:08:58;;;;;;;3.85;2.60;;;21.80;33.40;;;;;;5072694;28;20510;-67
2022/01/19 01:11:29;;;;;;;4.80;2.90;;;21.80;32.90;;;;;;5054585;28;20959;-67
2022/01/19 01:16:40;;;;;;;3.97;2.60;;;21.80;32.90;;;;;;5072757;28;20419;-67
2022/01/19 01:19:08;;;;;;;4.00;2.60;;;21.80;32.80;;;;;;5072286;28;20440;-66
2022/01/19 01:21:34;;;;;;;3.88;2.50;;;21.70;32.90;;;;;;5071729;28;20422;-68
2022/01/19 01:24:01;;;;;;;4.28;2.63;;;21.70;33.50;;;;;;5072140;28;20442;-72
2022/01/19 01:26:26;;;;;;;4.37;2.80;;;21.70;32.90;;;;;;5071108;28;20746;-68
2022/01/19 01:28:52;;;;;;;4.00;2.50;;;21.70;32.80;;;;;;5072620;28;20594;-67
2022/01/19 01:31:19;;;;;;;4.10;2.33;;;21.70;32.80;;;;;;5071820;28;20380;-67
2022/01/19 01:33:45;;;;;;;3.55;2.60;;;21.70;32.70;;;;;;5072452;28;20388;-67
2022/01/19 01:36:11;;;;;;;4.18;2.70;;;21.70;32.70;;;;;;5054432;28;20399;-68
2022/01/19 01:38:37;;;;;;;3.63;2.50;;;21.70;32.70;;;;;;5072311;28;20758;-67
2022/01/19 01:41:11;;;;;;;4.00;2.75;;;21.70;32.60;;;;;;5070451;28;20391;-67
2022/01/19 01:43:37;;;;;;;3.58;2.55;;;21.70;32.70;;;;;;5072170;28;20410;-67
2022/01/19 01:46:06;;;;;;;3.90;2.50;;;21.70;32.60;;;;;;5072180;28;20395;-67
2022/01/19 01:48:40;;;;;;;3.40;2.50;;;21.70;32.50;;;;;;5071866;28;20400;-71
2022/01/19 01:53:52;;;;;;;3.70;2.60;;;21.70;32.50;;;;;;5072095;28;20375;-67
2022/01/19 01:56:18;;;;;;;3.50;2.50;;;21.70;32.50;;;;;;5071776;28;20396;-67
2022/01/19 01:58:47;;;;;;;3.50;2.50;;;21.70;32.30;;;;;;5072333;28;20382;-68
2022/01/19 02:01:14;;;;;;;3.13;2.33;;;21.60;32.40;;;;;;5071495;28;20395;-67
2022/01/19 02:03:42;;;;;;;3.95;2.45;;;21.60;32.30;;;;;;5071821;28;20408;-70
2022/01/19 02:11:36;;;;;;;3.10;2.25;;;21.50;32.30;;;;;;5070546;28;20979;-70
2022/01/19 02:23:17;;;;;;;3.38;2.22;;;21.50;32.80;;;;;;5071500;28;20425;-67
2022/01/19 02:25:45;;;;;;;3.28;2.35;;;21.50;32.20;;;;;;5071635;28;20422;-68
2022/01/19 02:42:08;;;;;;;3.67;2.38;;;21.50;32.10;;;;;;5071401;28;20391;-67
2022/01/19 02:49:52;;;;;;;2.90;2.20;;;21.40;31.90;;;;;;5071497;28;20413;-67
2022/01/19 02:52:20;;;;;;;2.83;2.30;;;21.40;31.90;;;;;;5071265;28;20383;-70
2022/01/19 02:54:46;;;;;;;3.00;2.30;;;21.40;32.00;;;;;;5071196;28;20916;-67
2022/01/19 02:57:14;;;;;;;2.95;2.15;;;21.50;32.00;;;;;;5070818;28;20885;-67
2022/01/19 03:10:32;;;;;;;2.80;2.20;;;21.40;32.10;;;;;;5071433;28;20407;-72
2022/01/19 03:12:57;;;;;;;3.20;2.38;;;21.40;32.10;;;;;;5071126;28;20388;-67
2022/01/19 03:15:23;;;;;;;2.70;1.90;;;21.40;31.90;;;;;;5070534;28;20403;-68
2022/01/19 03:17:49;;;;;;;2.70;2.30;;;21.40;32.00;;;;;;5071153;28;20466;-68
2022/01/19 03:20:15;;;;;;;3.65;2.15;;;21.40;32.00;;;;;;5071027;28;20419;-68
2022/01/19 03:22:54;;;;;;;2.88;2.15;;;21.40;32.00;;;;;;5072556;28;20390;-68
2022/01/19 03:25:20;;;;;;;2.85;2.13;;;21.30;31.70;;;;;;5074390;28;20400;-67
2022/01/19 03:27:47;;;;;;;2.88;2.03;;;21.30;31.80;;;;;;5073692;28;21019;-67
2022/01/19 03:30:17;;;;;;;2.65;2.00;;;21.30;31.90;;;;;;5056815;28;20432;-67
2022/01/19 03:32:43;;;;;;;2.55;2.13;;;21.30;31.90;;;;;;5074752;28;20892;-68
2022/01/19 03:35:11;;;;;;;2.50;2.10;;;21.30;31.70;;;;;;5074251;28;20461;-67
2022/01/19 03:37:37;;;;;;;2.65;2.08;;;21.30;31.70;;;;;;5074681;28;20476;-68
2022/01/19 03:40:04;;;;;;;3.25;2.10;;;21.30;31.70;;;;;;5074662;28;20391;-67
2022/01/19 03:42:30;;;;;;;3.33;2.08;;;21.30;31.80;;;;;;5074551;28;20388;-72
2022/01/19 03:44:56;;;;;;;2.60;2.00;;;21.30;31.80;;;;;;5074445;28;20494;-67
2022/01/19 03:47:21;;;;;;;3.00;1.90;;;21.20;31.70;;;;;;5073536;28;20387;-67
2022/01/19 03:49:47;;;;;;;3.33;2.10;;;21.30;31.70;;;;;;5073257;28;20396;-68
2022/01/19 03:52:13;;;;;;;2.60;1.90;;;21.20;31.60;;;;;;5074342;28;20387;-67
2022/01/19 03:54:43;;;;;;;2.63;2.00;;;21.20;31.60;;;;;;5074364;28;20414;-72
2022/01/19 03:57:10;;;;;;;2.55;2.13;;;21.20;31.50;;;;;;5073850;28;20416;-67
2022/01/19 03:59:35;;;;;;;2.75;2.13;;;21.30;31.30;;;;;;5074096;28;21036;-67
2022/01/19 04:02:02;;;;;;;2.35;1.90;;;21.30;31.40;;;;;;5074165;28;20392;-67
2022/01/19 04:05:06;;;;;;;2.83;2.00;;;21.20;31.30;;;;;;5073942;28;20447;-67
2022/01/19 04:07:21;;;;;;;2.78;1.77;;;21.30;31.00;;;;;;5070342;28;20434;-67
2022/01/19 04:09:48;;;;;;;5.20;2.10;;;21.30;31.80;;;;;;5073547;28;20419;-66
2022/01/19 04:12:20;;;;;;;5.10;2.00;;;21.40;32.30;;;;;;5075982;28;20391;-66
2022/01/19 04:14:46;;;;;;;7.47;2.30;;;21.50;32.40;;;;;;5075577;28;20391;-67
2022/01/19 04:17:14;;;;;;;3.90;2.10;;;21.50;32.90;;;;;;5074749;28;20386;-67
2022/01/19 04:19:45;;;;;;;4.72;2.13;;;21.60;32.50;;;;;;5073850;28;20951;-73
2022/01/19 04:22:15;;;;;;;3.53;2.10;;;21.60;32.70;;;;;;5073681;28;20388;-69
2022/01/19 04:24:41;;;;;;;4.78;2.10;;;21.50;33.00;;;;;;5073689;28;20418;-72
2022/01/19 04:29:45;;;;;;;3.50;2.25;;;21.50;34.20;;;;;;5073871;28;20394;-67
2022/01/19 04:32:15;;;;;;;3.28;2.15;;;21.60;34.20;;;;;;5073501;28;20434;-70
2022/01/19 04:34:43;;;;;;;6.32;2.25;;;21.60;34.30;;;;;;5073794;28;20384;-67
2022/01/19 05:01:51;;;;;;;5.38;1.83;;;21.60;33.50;;;;;;5093057;28;21075;-68
2022/01/19 05:06:45;;;;;;;5.35;2.03;;;21.60;33.60;;;;;;5093014;28;20382;-67
2022/01/19 05:09:27;;;;;;;4.70;1.80;;;21.60;33.40;;;;;;5092554;28;20395;-64
2022/01/19 05:14:37;;;;;;;3.33;1.75;;;21.50;33.20;;;;;;5093078;28;20447;-67
2022/01/19 05:17:03;;;;;;;3.43;1.80;;;21.50;33.10;;;;;;5074831;28;20884;-67
2022/01/19 05:19:29;;;;;;;4.78;1.77;;;21.50;33.10;;;;;;5092542;28;20411;-67
2022/01/19 05:21:54;;;;;;;5.50;1.83;;;21.50;33.00;;;;;;5092908;28;20386;-70
2022/01/19 05:24:20;;;;;;;3.13;1.70;;;21.50;33.00;;;;;;5074057;28;20509;-68
2022/01/19 05:26:46;;;;;;;2.90;1.80;;;21.50;32.80;;;;;;5092360;28;20419;-68
2022/01/19 05:29:12;;;;;;;3.00;1.85;;;21.50;32.70;;;;;;5092371;28;20390;-68
2022/01/19 05:31:38;;;;;;;3.40;1.77;;;21.50;32.60;;;;;;5097151;28;20891;-68
2022/01/19 05:34:04;;;;;;;2.75;1.70;;;21.50;32.70;;;;;;5112858;28;20391;-68
2022/01/19 05:36:30;;;;;;;3.08;1.70;;;21.50;32.60;;;;;;5113057;28;20442;-72
2022/01/19 05:38:56;;;;;;;4.57;1.88;;;21.40;32.40;;;;;;5113061;28;20419;-67
2022/01/19 05:41:21;;;;;;;4.78;2.00;;;21.40;32.40;;;;;;5094137;28;20483;-68
2022/01/19 05:43:47;;;;;;;5.20;2.03;;;21.40;32.30;;;;;;5112805;28;20773;-71
2022/01/19 05:46:13;;;;;;;3.13;1.97;;;21.40;32.30;;;;;;5111619;28;20445;-67
2022/01/19 05:48:39;;;;;;;4.20;2.40;;;21.40;32.50;;;;;;5112677;28;20805;-71
2022/01/19 05:51:05;;;;;;;3.10;2.20;;;21.40;32.90;;;;;;5112901;28;20395;-66
2022/01/19 05:53:31;;;;;;;2.97;2.20;;;21.40;33.00;;;;;;5093756;28;20392;-67
2022/01/19 05:55:57;;;;;;;4.55;2.38;;;21.40;33.10;;;;;;5112733;28;20388;-66
2022/01/19 05:58:22;;;;;;;3.40;2.30;;;21.30;33.10;;;;;;5112642;28;20930;-67
2022/01/19 06:00:48;;;;;;;3.90;2.17;;;21.30;33.10;;;;;;5112630;28;20430;-67
2022/01/19 06:03:15;;;;;;;4.72;2.50;;;21.30;33.00;;;;;;5112023;28;20731;-66
2022/01/19 06:05:41;;;;;;;3.78;2.35;;;21.30;33.00;;;;;;5094260;28;20400;-67
2022/01/19 06:10:54;;;;;;;3.90;2.20;;;21.30;32.90;;;;;;5112390;28;20403;-67
2022/01/19 06:13:20;;;;;;;4.82;2.40;;;21.30;32.80;;;;;;5093448;28;20446;-67
2022/01/19 06:15:47;;;;;;;3.88;2.25;;;21.30;32.80;;;;;;5112277;28;20395;-67
2022/01/19 06:18:13;;;;;;;4.15;2.70;;;21.20;32.70;;;;;;5112192;28;20385;-66
2022/01/19 06:20:40;;;;;;;3.65;2.40;;;21.20;32.70;;;;;;5093959;28;20410;-67
2022/01/19 06:23:06;;;;;;;3.17;2.30;;;21.20;32.70;;;;;;5093833;28;20457;-71
2022/01/19 06:25:32;;;;;;;3.70;2.40;;;21.30;32.70;;;;;;5111281;28;20471;-70
2022/01/19 06:27:58;;;;;;;3.45;2.50;;;21.20;32.70;;;;;;5112153;28;20830;-69
2022/01/19 06:30:23;;;;;;;4.70;2.60;;;21.20;32.60;;;;;;5094046;28;20749;-67
2022/01/19 06:32:49;;;;;;;3.40;2.33;;;21.20;32.60;;;;;;5112031;28;20419;-66
2022/01/19 06:35:15;;;;;;;4.82;2.60;;;21.20;32.60;;;;;;5111586;28;20413;-66
2022/01/19 06:37:41;;;;;;;3.63;2.72;;;21.20;32.60;;;;;;5093774;28;20397;-67
2022/01/19 06:40:10;;;;;;;3.83;2.70;;;21.20;32.50;;;;;;5111578;28;20410;-67
2022/01/19 06:42:36;;;;;;;3.50;2.50;;;21.20;32.50;;;;;;5076372;28;20525;-67
2022/01/19 06:45:03;;;;;;;3.72;2.67;;;21.20;32.50;;;;;;5111868;28;20495;-67
2022/01/19 06:47:29;;;;;;;4.20;2.60;;;21.20;32.40;;;;;;5092853;28;20480;-67
2022/01/19 06:49:54;;;;;;;3.22;2.60;;;21.20;32.40;;;;;;5112027;28;20745;-67
2022/01/19 06:52:20;;;;;;;4.00;2.67;;;21.20;32.40;;;;;;5111358;28;20387;-67
2022/01/19 06:54:46;;;;;;;2.90;2.50;;;21.20;32.40;;;;;;5111921;28;20380;-72
2022/01/19 06:57:11;;;;;;;3.80;2.60;;;21.10;32.30;;;;;;5111251;28;20383;-69
2022/01/19 06:59:37;;;;;;;3.58;2.78;;;21.10;32.30;;;;;;5093310;28;20392;-70
2022/01/19 07:02:03;;;;;;;3.47;2.70;;;21.10;32.30;;;;;;5093455;28;20420;-68
2022/01/19 07:04:28;;;;;;;3.53;2.70;;;21.10;32.30;;;;;;5093217;28;20408;-71
2022/01/19 07:06:54;;;;;;;3.73;2.70;;;21.10;32.30;;;;;;5111643;28;20880;-72
2022/01/19 07:09:20;;;;;;;3.03;2.58;;;21.10;32.30;;;;;;5111300;28;20388;-68
2022/01/19 07:11:46;;;;;;;4.63;2.73;;;21.10;32.30;;;;;;5093320;28;20388;-67
2022/01/19 07:14:14;;;;;;;3.58;2.63;;;21.10;32.30;;;;;;5093255;28;20472;-66
2022/01/19 07:16:40;;;;;;;3.08;2.58;;;21.00;32.20;;;;;;5111579;28;20844;-67
2022/01/19 07:19:06;;;;;;;3.38;2.70;;;21.10;32.30;;;;;;5111685;28;20381;-69
2022/01/19 07:21:32;;;;;;;3.38;2.60;;;21.10;32.20;;;;;;5111143;28;20376;-67
2022/01/19 07:23:57;;;;;;;3.73;2.50;;;21.10;32.10;;;;;;5111521;28;20400;-67
2022/01/19 07:26:23;;;;;;;3.58;2.63;;;21.10;32.10;;;;;;5111315;28;20388;-67
2022/01/19 07:28:49;;;;;;;3.40;2.80;;;21.00;32.20;;;;;;5111601;28;20874;-73
2022/01/19 07:31:14;;;;;;;3.20;2.70;;;20.80;32.30;;;;;;5111255;28;20385;-66
2022/01/19 07:33:40;;;;;;;3.40;2.73;;;20.80;32.40;;;;;;5090037;28;20764;-66
2022/01/19 07:36:06;;;;;;;3.10;2.40;;;20.70;32.30;;;;;;5090648;28;20390;-68
2022/01/19 07:38:32;;;;;;;3.70;2.70;;;20.70;32.30;;;;;;5072797;28;20390;-65
2022/01/19 07:40:58;;;;;;;3.30;2.53;;;20.70;32.30;;;;;;5072601;28;20422;-65
2022/01/19 07:43:23;;;;;;;3.15;2.45;;;20.70;32.20;;;;;;5090199;28;20405;-69
2022/01/19 07:45:49;;;;;;;3.97;2.90;;;20.70;32.30;;;;;;5072564;28;20892;-72
2022/01/19 07:48:16;;;;;;;3.15;2.70;;;20.60;32.30;;;;;;5090965;28;20485;-66
2022/01/19 07:50:41;;;;;;;3.00;2.70;;;20.60;32.10;;;;;;5091057;28;20871;-67
2022/01/19 07:53:07;;;;;;;3.28;2.67;;;20.60;32.30;;;;;;5091007;28;20389;-66
2022/01/19 07:55:33;;;;;;;3.40;2.67;;;20.60;32.30;;;;;;5089962;28;20757;-67
2022/01/19 07:57:58;;;;;;;4.82;3.40;;;20.60;32.50;;;;;;5090491;28;20775;-66
2022/01/19 08:00:24;;;;;;;5.13;3.57;;;20.70;32.50;;;;;;5090732;28;20418;-65
2022/01/19 08:02:50;;;;;;;8.95;3.42;;;20.60;32.40;;;;;;5090869;28;20386;-67
2022/01/19 08:05:16;;;;;;;6.65;3.33;;;20.50;32.60;;;;;;5090496;28;20422;-66
2022/01/19 08:07:42;;;;;;;4.95;3.20;;;20.50;32.80;;;;;;5090761;28;20466;-66
2022/01/19 08:10:10;;;;;;;7.38;3.28;;;20.50;32.80;;;;;;5092601;28;20484;-65
2022/01/19 08:12:36;;;;;;;5.85;3.08;;;20.50;32.90;;;;;;5094138;28;20789;-65
2022/01/19 08:15:02;;;;;;;6.32;2.95;;;20.50;33.00;;;;;;5059610;28;20386;-66
2022/01/19 08:17:28;;;;;;;5.22;3.00;;;20.50;33.00;;;;;;5075500;28;20931;-65
2022/01/19 08:19:54;;;;;;;5.65;3.05;;;20.50;33.00;;;;;;5094247;28;20415;-66
2022/01/19 08:22:20;;;;;;;6.10;2.95;;;20.40;33.00;;;;;;5093891;28;20398;-66
2022/01/19 08:24:46;;;;;;;4.90;2.90;;;20.50;33.00;;;;;;5093900;28;20410;-65
2022/01/19 08:27:12;;;;;;;4.78;2.95;;;20.50;33.00;;;;;;5094026;28;20382;-66
2022/01/19 08:29:37;;;;;;;4.93;3.20;;;20.50;33.20;;;;;;5093520;28;20398;-66
2022/01/19 08:32:05;;;;;;;4.30;3.13;;;20.40;33.20;;;;;;5094051;28;20378;-66
2022/01/19 08:34:31;;;;;;;5.13;3.05;;;20.40;33.10;;;;;;5093917;28;20418;-66
2022/01/19 08:36:58;;;;;;;5.20;3.10;;;20.40;33.00;;;;;;5093974;28;20425;-65
2022/01/19 08:39:24;;;;;;;5.40;3.70;;;20.40;33.20;;;;;;5093240;28;20389;-65
2022/01/19 08:41:51;;;;;;;5.18;3.63;;;20.50;32.90;;;;;;5093899;28;20396;-65
2022/01/19 08:44:17;;;;;;;5.20;3.40;;;20.50;32.60;;;;;;5093583;28;20472;-66
2022/01/19 08:46:44;;;;;;;5.90;3.50;;;20.50;32.60;;;;;;5093730;28;20765;-66
2022/01/19 08:49:11;;;;;;;4.90;3.30;;;20.60;32.50;;;;;;5093516;28;20840;-65
2022/01/19 08:51:37;;;;;;;4.80;3.22;;;20.60;32.50;;;;;;5093348;28;20379;-66
2022/01/19 08:54:03;;;;;;;4.68;3.20;;;20.70;32.50;;;;;;5093632;28;20393;-65
2022/01/19 08:56:29;;;;;;;4.75;3.50;;;20.70;32.40;;;;;;5093465;28;20744;-65
2022/01/19 08:58:55;;;;;;;6.05;3.30;;;20.80;32.50;;;;;;5093569;28;20482;-66
2022/01/19 09:01:21;;;;;;;3.70;3.00;;;20.80;32.50;;;;;;5092956;28;20382;-65
2022/01/19 09:03:46;;;;;;;5.38;3.10;;;20.80;32.40;;;;;;5093317;28;20410;-66
2022/01/19 09:06:12;;;;;;;5.07;2.90;;;20.90;32.50;;;;;;5093313;28;20389;-66
2022/01/19 09:08:38;;;;;;;3.63;2.80;;;20.90;32.50;;;;;;5075173;28;20399;-65
2022/01/19 09:11:05;;;;;;;4.30;2.80;;;20.90;32.50;;;;;;5093017;28;20394;-66
2022/01/19 09:13:32;;;;;;;3.95;2.90;;;21.00;32.60;;;;;;5092790;28;20386;-66
2022/01/19 09:15:58;;;;;;;4.82;2.90;;;21.00;32.50;;;;;;5093128;28;20398;-66
2022/01/19 09:18:23;;;;;;;4.17;3.03;;;21.00;32.60;;;;;;5093125;28;20396;-67
2022/01/19 09:20:49;;;;;;;4.68;2.90;;;21.00;32.70;;;;;;5092725;28;20386;-66
2022/01/19 09:23:15;;;;;;;3.87;2.90;;;21.00;32.70;;;;;;5092881;28;20378;-66
2022/01/19 09:25:40;;;;;;;4.50;2.70;;;21.00;32.60;;;;;;5073974;28;20398;-66
2022/01/19 09:28:07;;;;;;;3.63;2.60;;;21.00;32.70;;;;;;5074153;28;20393;-66
2022/01/19 09:30:34;;;;;;;4.15;2.90;;;21.10;32.80;;;;;;5092759;28;20397;-70
2022/01/19 09:33:11;;;;;;;3.65;2.88;;;21.10;32.80;;;;;;5092895;28;20390;-68
2022/01/19 09:38:33;;;;;;;3.42;2.63;;;21.10;32.70;;;;;;5092740;28;20459;-66
2022/01/19 09:40:59;;;;;;;3.85;2.92;;;21.20;32.80;;;;;;5074365;28;20394;-66
2022/01/19 09:43:25;;;;;;;3.40;2.70;;;21.20;32.60;;;;;;5091933;28;20902;-65
2022/01/19 09:45:59;;;;;;;4.23;2.70;;;21.20;32.60;;;;;;5074428;28;20769;-65
2022/01/19 09:48:26;;;;;;;3.53;2.80;;;21.20;32.50;;;;;;5074023;28;20402;-65
2022/01/19 09:50:53;;;;;;;4.38;3.03;;;21.20;32.50;;;;;;5092665;28;20414;-66
2022/01/19 09:53:19;;;;;;;3.78;2.70;;;21.20;32.40;;;;;;5092096;28;20417;-65
2022/01/19 09:55:46;;;;;;;4.60;2.80;;;21.20;32.40;;;;;;5092174;28;20418;-65
2022/01/19 09:58:12;;;;;;;2.88;2.53;;;21.30;32.30;;;;;;5074170;28;20416;-66
2022/01/19 10:00:38;;;;;;;3.97;2.50;;;21.30;32.40;;;;;;5092319;28;20435;-66
2022/01/19 10:03:23;;;;;;;2.80;2.30;;;21.30;32.40;;;;;;5092295;28;20395;-65
2022/01/19 10:06:09;;;;;;;3.00;2.30;;;21.30;32.40;;;;;;5092275;28;20424;-66
2022/01/19 10:08:38;;;;;;;3.78;2.53;;;21.30;32.40;;;;;;5074016;28;20394;-65
2022/01/19 10:17:03;;;;;;;3.33;2.50;;;21.20;32.50;;;;;;5092111;28;20412;-66
2022/01/19 10:19:49;;;;;;;2.72;2.13;;;21.20;32.50;;;;;;5091548;28;20721;-66
2022/01/19 10:22:18;;;;;;;2.90;2.27;;;21.20;32.50;;;;;;5091878;28;20386;-66
2022/01/19 10:25:02;;;;;;;2.83;2.10;;;21.20;32.60;;;;;;5091824;28;20505;-66
2022/01/19 10:27:42;;;;;;;3.33;2.20;;;21.30;32.50;;;;;;5091079;28;20387;-66
2022/01/19 10:30:08;;;;;;;3.42;2.20;;;21.30;32.50;;;;;;5073640;28;20378;-66
2022/01/19 10:32:36;;;;;;;3.50;2.33;;;21.30;32.50;;;;;;5089243;28;20949;-67
2022/01/19 10:35:21;;;;;;;3.60;2.40;;;21.30;32.50;;;;;;5092024;28;20385;-68
2022/01/19 10:38:04;;;;;;;4.20;2.10;;;21.30;32.40;;;;;;5082663;28;20404;-66
2022/01/19 10:40:30;;;;;;;4.25;2.33;;;21.30;32.10;;;;;;5088648;28;20408;-65
2022/01/19 10:42:55;;;;;;;6.83;2.40;;;21.40;32.00;;;;;;5072728;28;20394;-73
2022/01/19 10:45:21;;;;;;;4.20;2.50;;;21.50;31.90;;;;;;5070685;28;20504;-66
2022/01/19 10:47:53;;;;;;;4.30;2.57;;;21.60;32.00;;;;;;5088586;28;20764;-74
2022/01/19 10:50:25;;;;;;;5.07;2.70;;;21.60;32.00;;;;;;5086740;28;20394;-72
2022/01/19 10:52:53;;;;;;;3.95;2.30;;;21.60;31.90;;;;;;5089524;28;20453;-74
2022/01/19 10:55:19;;;;;;;5.03;2.33;;;21.60;32.00;;;;;;5067340;28;20390;-74
2022/01/19 10:57:45;;;;;;;4.07;2.40;;;21.60;32.00;;;;;;5089041;28;20412;-73
2022/01/19 11:00:14;;;;;;;4.72;2.30;;;21.60;31.90;;;;;;5070706;28;20947;-71
2022/01/19 11:02:40;;;;;;;3.50;2.20;;;21.70;31.90;;;;;;5070567;28;20864;-74
2022/01/19 11:05:06;;;;;;;3.25;1.92;;;21.70;31.70;;;;;;5069216;28;20829;-69
2022/01/19 11:07:32;;;;;;;3.40;2.00;;;21.80;31.50;;;;;;5069143;28;20401;-73
2022/01/19 11:10:07;;;;;;;3.27;1.83;;;21.80;32.00;;;;;;5089367;28;20420;-68
2022/01/19 11:12:39;;;;;;;3.15;1.80;;;21.80;31.20;;;;;;5089985;28;20421;-70
2022/01/19 11:15:05;;;;;;;3.35;2.10;;;21.80;31.00;;;;;;5087355;28;20382;-71
2022/01/19 11:17:31;;;;;;;2.40;1.77;;;21.90;31.10;;;;;;5088890;28;20393;-68
2022/01/19 11:20:06;;;;;;;2.60;1.90;;;21.90;30.90;;;;;;5071099;28;20734;-69
2022/01/19 11:23:10;;;;;;;3.90;1.80;;;21.90;31.00;;;;;;5088939;28;20394;-69
2022/01/19 11:25:48;;;;;;;2.40;1.70;;;22.00;30.80;;;;;;5088001;28;20955;-74
2022/01/19 11:28:28;;;;;;;2.42;1.67;;;22.10;30.80;;;;;;5053011;28;20858;-73
2022/01/19 11:30:54;;;;;;;2.50;1.70;;;22.10;30.70;;;;;;5052148;28;20453;-74
2022/01/19 11:33:47;;;;;;;3.28;1.70;;;22.10;30.60;;;;;;5070179;28;20473;-68
2022/01/19 11:36:31;;;;;;;2.50;1.60;;;22.20;30.60;;;;;;5044594;28;20445;-65
2022/01/19 11:39:20;;;;;;;2.83;1.52;;;22.20;30.50;;;;;;5052796;28;20810;-67
2022/01/19 11:41:54;;;;;;;1.98;1.40;;;22.20;30.40;;;;;;5071260;28;20394;-73
2022/01/19 11:44:38;;;;;;;2.90;1.50;;;22.30;30.30;;;;;;5074516;28;20985;-73
2022/01/19 11:47:13;;;;;;;2.08;1.50;;;22.30;30.30;;;;;;5076111;28;20431;-72
2022/01/19 11:49:47;;;;;;;2.28;1.48;;;22.30;30.30;;;;;;5093855;28;20393;-74
2022/01/19 11:52:15;;;;;;;1.95;1.30;;;22.30;30.20;;;;;;5094126;28;20385;-71
2022/01/19 11:54:42;;;;;;;1.70;1.20;;;22.30;30.10;;;;;;5109829;28;20386;-74
2022/01/19 11:57:13;;;;;;;2.30;1.60;;;22.40;30.10;;;;;;5093436;28;20382;-73
2022/01/19 11:59:48;;;;;;;2.80;1.58;;;22.40;30.10;;;;;;5074683;28;20378;-74
2022/01/19 12:02:38;;;;;;;1.95;1.40;;;22.40;30.10;;;;;;5092545;28;20810;-73
2022/01/19 12:05:10;;;;;;;1.75;1.40;;;22.40;30.00;;;;;;5073388;28;20518;-74
2022/01/19 12:07:50;;;;;;;2.15;1.65;;;22.40;30.00;;;;;;5089779;28;20386;-71
2022/01/19 12:10:42;;;;;;;1.83;1.42;;;22.40;30.00;;;;;;5071823;28;20398;-70
2022/01/19 12:16:52;;;;;;;2.85;1.70;;;22.50;29.90;;;;;;5089836;28;20382;-68
2022/01/19 12:19:21;;;;;;;1.98;1.35;;;22.50;30.00;;;;;;5010498;28;20392;-69
2022/01/19 12:21:48;;;;;;;2.03;1.40;;;23.70;31.30;;;;;;5087627;28;20394;-73
2022/01/19 12:24:19;;;;;;;2.60;1.43;;;24.20;31.60;;;;;;5070622;28;20458;-69
2022/01/19 12:26:49;;;;;;;3.08;1.48;;;24.50;31.10;;;;;;5073612;28;20945;-66
2022/01/19 12:29:33;;;;;;;3.20;1.50;;;24.70;31.00;;;;;;5091030;28;20948;-75
2022/01/19 12:32:02;;;;;;;4.85;1.27;;;24.80;31.00;;;;;;5091070;28;20420;-74
2022/01/19 12:34:48;;;;;;;1.85;1.23;;;24.80;30.90;;;;;;5073145;28;20394;-74
2022/01/19 12:37:32;;;;;;;3.20;1.42;;;24.90;30.90;;;;;;5091910;28;20420;-68
2022/01/19 12:40:01;;;;;;;2.45;1.40;;;25.00;30.90;;;;;;5071427;28;20406;-72
2022/01/19 12:42:43;;;;;;;3.05;1.40;;;25.10;30.70;;;;;;5092182;28;20390;-72
2022/01/19 12:45:33;;;;;;;2.45;1.45;;;25.20;30.60;;;;;;5091103;28;20413;-69
2022/01/19 12:48:03;;;;;;;2.47;1.63;;;25.30;30.60;;;;;;5061078;28;20409;-75
2022/01/19 12:50:29;;;;;;;2.75;1.30;;;25.50;30.50;;;;;;5051505;28;20409;-73
2022/01/19 12:53:07;;;;;;;1.95;1.40;;;25.50;30.40;;;;;;5051674;28;20898;-74
2022/01/19 12:55:36;;;;;;;1.90;1.30;;;25.60;30.40;;;;;;5050479;28;20808;-72
2022/01/19 12:58:39;;;;;;;2.10;1.50;;;25.60;30.30;;;;;;5031980;28;20407;-74
2022/01/19 13:01:07;;;;;;;1.70;1.35;;;25.60;30.30;;;;;;5034620;28;20893;-70
2022/01/19 13:03:45;;;;;;;1.80;1.20;;;25.70;31.00;;;;;;5050665;28;20519;-73
2022/01/19 13:06:15;;;;;;;1.80;1.10;;;25.80;30.30;;;;;;5051492;28;20450;-74
2022/01/19 13:08:56;;;;;;;2.28;1.30;;;25.90;30.30;;;;;;5049883;28;20399;-75
2022/01/19 13:11:39;;;;;;;1.90;1.23;;;26.00;30.10;;;;;;5047900;28;20397;-70
2022/01/19 13:14:07;;;;;;;1.60;1.10;;;26.10;30.00;;;;;;5048223;28;20408;-73
2022/01/19 13:16:44;;;;;;;2.00;1.30;;;26.10;30.10;;;;;;5051106;28;20411;-65
2022/01/19 13:19:28;;;;;;;1.88;1.23;;;26.20;30.10;;;;;;5049495;28;21134;-69
2022/01/19 13:22:08;;;;;;;2.00;1.30;;;26.20;30.00;;;;;;5049214;28;20394;-73
2022/01/19 13:24:36;;;;;;;1.88;1.33;;;26.30;29.90;;;;;;5051696;28;20432;-70
2022/01/19 13:27:05;;;;;;;1.80;1.20;;;26.30;29.80;;;;;;5051012;28;20469;-68
2022/01/19 13:29:39;;;;;;;2.60;1.40;;;26.30;29.70;;;;;;5049015;28;20756;-73
2022/01/19 13:32:15;;;;;;;2.83;1.30;;;26.30;29.60;;;;;;5049195;28;20389;-73
2022/01/19 13:34:59;;;;;;;3.25;1.30;;;26.30;29.50;;;;;;5047905;28;20821;-66
2022/01/19 13:37:36;;;;;;;3.10;1.27;;;26.30;29.50;;;;;;5049303;28;20401;-70
2022/01/19 13:40:11;;;;;;;2.78;1.20;;;26.40;29.50;;;;;;5048113;28;20472;-74
2022/01/19 13:42:47;;;;;;;3.03;1.40;;;26.40;29.50;;;;;;5047031;28;20496;-74
2022/01/19 13:45:27;;;;;;;1.52;1.20;;;26.40;29.40;;;;;;5050706;28;20464;-72
2022/01/19 13:48:06;;;;;;;2.83;1.20;;;26.40;29.50;;;;;;5048297;28;20485;-66
2022/01/19 13:50:35;;;;;;;2.63;1.40;;;26.40;29.30;;;;;;5050053;28;20884;-74
2022/01/19 13:53:01;;;;;;;2.03;1.30;;;26.40;29.30;;;;;;5050557;28;20397;-65
2022/01/19 13:55:28;;;;;;;2.20;1.40;;;26.40;29.30;;;;;;5050152;28;20421;-68
2022/01/19 13:58:12;;;;;;;2.50;1.40;;;26.50;29.30;;;;;;5048847;28;20754;-65
2022/01/19 14:01:04;;;;;;;2.70;1.52;;;26.40;29.20;;;;;;5046259;28;20397;-64
2022/01/19 14:04:03;;;;;;;2.20;1.50;;;26.50;29.20;;;;;;5047562;28;20493;-69
2022/01/19 14:06:32;;;;;;;2.70;1.50;;;26.60;29.10;;;;;;5048476;28;21029;-66
2022/01/19 14:09:09;;;;;;;4.28;1.50;;;26.80;29.00;;;;;;5046038;28;20929;-66
2022/01/19 14:11:38;;;;;;;3.78;1.50;;;26.90;28.90;;;;;;5048055;28;20440;-66
2022/01/19 14:14:07;;;;;;;5.32;1.98;;;27.00;28.90;;;;;;5050031;28;20476;-68
2022/01/19 14:16:38;;;;;;;3.70;1.90;;;27.20;28.70;;;;;;5032074;28;20421;-67
2022/01/19 14:19:23;;;;;;;3.53;1.83;;;27.20;29.10;;;;;;5048766;28;20393;-66
2022/01/19 14:21:59;;;;;;;5.10;1.85;;;27.10;29.20;;;;;;5048643;28;20396;-66
2022/01/19 14:24:27;;;;;;;4.28;1.63;;;26.90;29.30;;;;;;5048063;28;20778;-68
2022/01/19 14:26:59;;;;;;;4.05;1.80;;;26.90;29.30;;;;;;5049834;28;20475;-67
2022/01/19 14:29:26;;;;;;;3.42;1.80;;;26.90;29.30;;;;;;5049648;28;20428;-67
2022/01/19 14:32:00;;;;;;;3.33;1.63;;;26.90;29.40;;;;;;5046819;28;20417;-66
2022/01/19 14:34:32;;;;;;;3.80;1.90;;;26.90;29.90;;;;;;5046862;28;20484;-66
2022/01/19 14:37:12;;;;;;;3.03;2.00;;;26.90;29.40;;;;;;5048723;28;20923;-67